createdAt,value
2022-09-18T00:01:40.763Z,84.07
2022-09-18T00:04:13.774Z,84.37
2022-09-18T00:06:44.204Z,84.28
2022-09-18T00:09:15.613Z,84.81
2022-09-18T00:11:49.301Z,85.37
2022-09-18T00:14:24.004Z,85.58
2022-09-18T00:16:52.547Z,84.63
2022-09-18T00:19:21.639Z,85.09
2022-09-18T00:21:52.100Z,84.33
2022-09-18T00:24:22.159Z,84.65
2022-09-18T00:26:51.213Z,84.82
2022-09-18T00:29:20.544Z,84.83
2022-09-18T00:31:48.727Z,83.98
2022-09-18T00:34:17.601Z,83.32
2022-09-18T00:36:46.304Z,83.64
2022-09-18T00:39:14.634Z,84.03
2022-09-18T00:41:44.857Z,84.68
2022-09-18T00:44:41.004Z,85.22
2022-09-18T00:47:28.463Z,84.46
2022-09-18T00:50:05.720Z,83.34
2022-09-18T00:52:48.263Z,82.74
2022-09-18T00:55:19.471Z,83.27
2022-09-18T00:57:53.914Z,81.96
2022-09-18T01:00:24.982Z,82.76
2022-09-18T01:02:53.786Z,83.01
2022-09-18T01:05:33.096Z,83.21
2022-09-18T01:08:26.415Z,83.43
2022-09-18T01:11:19.016Z,82.55
2022-09-18T01:14:00.988Z,82.17
2022-09-18T01:16:41.846Z,81.47
2022-09-18T01:19:32.100Z,82.83
2022-09-18T01:22:23.796Z,82.72
2022-09-18T01:25:14.724Z,82.34
2022-09-18T01:28:14.869Z,81.95
2022-09-18T01:30:46.933Z,81.88
2022-09-18T01:33:26.815Z,81.66
2022-09-18T01:36:04.058Z,82.46
2022-09-18T01:38:41.015Z,82.64
2022-09-18T01:41:15.045Z,82.26
2022-09-18T01:43:49.431Z,81.57
2022-09-18T01:46:20.838Z,80.01
2022-09-18T01:48:56.296Z,79.74
2022-09-18T01:51:30.361Z,79.31
2022-09-18T01:54:05.914Z,79.76
2022-09-18T01:56:39.984Z,79.21
2022-09-18T01:59:15.334Z,79.43
2022-09-18T02:01:47.638Z,79.54
2022-09-18T02:04:23.492Z,79.27
2022-09-18T02:07:00.854Z,78.10
2022-09-18T02:09:30.266Z,77.88
2022-09-18T02:12:07.030Z,78.59
2022-09-18T02:14:43.276Z,77.84
2022-09-18T02:17:18.412Z,77.88
2022-09-18T02:19:52.969Z,77.41
2022-09-18T02:22:25.156Z,77.39
2022-09-18T02:25:00.158Z,76.83
2022-09-18T02:27:33.075Z,77.39
2022-09-18T02:30:06.199Z,77.89
2022-09-18T02:32:38.062Z,76.19
2022-09-18T02:35:09.716Z,77.61
2022-09-18T02:37:55.727Z,78.04
2022-09-18T02:40:39.462Z,75.96
2022-09-18T02:43:28.099Z,76.30
2022-09-18T02:46:08.839Z,76.54
2022-09-18T02:48:53.757Z,76.72
2022-09-18T02:51:32.796Z,76.83
2022-09-18T02:54:08.527Z,77.40
2022-09-18T02:56:43.638Z,76.77
2022-09-18T02:59:19.455Z,76.39
2022-09-18T03:01:49.577Z,76.59
2022-09-18T03:04:24.162Z,75.71
2022-09-18T03:06:52.407Z,75.91
2022-09-18T03:09:22.060Z,76.24
2022-09-18T03:11:50.870Z,75.93
2022-09-18T03:14:18.877Z,75.51
2022-09-18T03:16:48.265Z,75.40
2022-09-18T03:19:17.388Z,74.19
2022-09-18T03:21:45.722Z,74.26
2022-09-18T03:24:13.955Z,74.40
2022-09-18T03:26:41.945Z,75.00
2022-09-18T03:29:10.405Z,74.80
2022-09-18T03:31:38.767Z,75.39
2022-09-18T03:34:08.513Z,74.00
2022-09-18T03:36:36.922Z,73.12
2022-09-18T03:39:05.717Z,74.60
2022-09-18T03:41:33.755Z,74.45
2022-09-18T03:44:01.769Z,75.65
2022-09-18T03:46:29.816Z,75.68
2022-09-18T03:48:58.015Z,74.49
2022-09-18T03:51:27.371Z,75.04
2022-09-18T03:53:55.312Z,76.66
2022-09-18T03:56:23.381Z,76.86
2022-09-18T03:58:51.890Z,76.44
2022-09-18T04:01:19.962Z,77.04
2022-09-18T04:03:47.990Z,75.48
2022-09-18T04:06:16.936Z,75.10
2022-09-18T04:08:46.252Z,74.71
2022-09-18T04:11:14.248Z,75.96
2022-09-18T04:13:42.239Z,76.56
2022-09-18T04:16:10.334Z,75.42
2022-09-18T04:18:38.300Z,76.03
2022-09-18T04:21:06.725Z,75.35
2022-09-18T04:23:34.722Z,76.09
2022-09-18T04:26:09.287Z,76.80
2022-09-18T04:28:38.014Z,75.47
2022-09-18T04:31:06.771Z,74.43
2022-09-18T04:33:34.921Z,74.84
2022-09-18T04:36:03.286Z,75.20
2022-09-18T04:38:31.287Z,75.79
2022-09-18T04:41:00.604Z,75.13
2022-09-18T04:43:30.209Z,75.86
2022-09-18T04:45:58.161Z,75.83
2022-09-18T04:48:26.290Z,76.33
2022-09-18T04:50:54.363Z,75.94
2022-09-18T04:53:22.377Z,76.25
2022-09-18T04:55:50.436Z,75.16
2022-09-18T04:58:20.589Z,76.05
2022-09-18T05:00:52.001Z,75.84
2022-09-18T05:03:22.464Z,74.52
2022-09-18T05:05:51.101Z,74.13
2022-09-18T05:08:19.367Z,72.96
2022-09-18T05:10:47.388Z,73.76
2022-09-18T05:13:15.814Z,74.19
2022-09-18T05:15:43.877Z,72.99
2022-09-18T05:18:14.020Z,72.67
2022-09-18T05:20:42.171Z,72.41
2022-09-18T05:23:10.202Z,73.24
2022-09-18T05:25:38.183Z,72.96
2022-09-18T05:28:06.806Z,72.62
2022-09-18T05:30:34.820Z,72.88
2022-09-18T05:33:05.329Z,72.48
2022-09-18T05:35:37.392Z,72.09
2022-09-18T05:38:05.618Z,72.82
2022-09-18T05:40:36.283Z,72.55
2022-09-18T05:43:04.868Z,72.94
2022-09-18T05:45:33.064Z,71.53
2022-09-18T05:48:03.445Z,71.27
2022-09-18T05:50:34.655Z,70.35
2022-09-18T05:53:05.734Z,70.46
2022-09-18T05:55:34.796Z,71.15
2022-09-18T05:58:05.085Z,70.46
2022-09-18T06:00:36.507Z,69.71
2022-09-18T06:03:07.311Z,69.73
2022-09-18T06:05:38.581Z,70.29
2022-09-18T06:08:08.864Z,70.01
2022-09-18T06:10:39.321Z,68.99
2022-09-18T06:13:10.577Z,69.59
2022-09-18T06:15:39.025Z,70.22
2022-09-18T06:18:08.723Z,70.74
2022-09-18T06:20:38.243Z,71.12
2022-09-18T06:23:06.311Z,69.34
2022-09-18T06:25:34.344Z,67.63
2022-09-18T06:28:02.818Z,68.25
2022-09-18T06:30:33.132Z,67.07
2022-09-18T06:33:03.265Z,66.78
2022-09-18T06:35:33.046Z,65.75
2022-09-18T06:38:03.977Z,65.44
2022-09-18T06:40:33.242Z,65.38
2022-09-18T06:43:03.702Z,65.25
2022-09-18T06:45:32.961Z,67.20
2022-09-18T06:48:04.756Z,66.11
2022-09-18T06:50:32.962Z,66.02
2022-09-18T06:53:10.075Z,66.22
2022-09-18T06:55:40.350Z,65.63
2022-09-18T06:58:08.672Z,65.82
2022-09-18T07:00:36.688Z,65.73
2022-09-18T07:03:05.064Z,66.07
2022-09-18T07:05:33.985Z,64.57
2022-09-18T07:08:03.806Z,64.97
2022-09-18T07:10:31.843Z,64.18
2022-09-18T07:13:02.182Z,64.83
2022-09-18T07:15:30.679Z,65.47
2022-09-18T07:18:00.180Z,65.51
2022-09-18T07:20:29.437Z,66.30
2022-09-18T07:23:00.070Z,64.88
2022-09-18T07:25:32.306Z,64.62
2022-09-18T07:28:04.932Z,64.13
2022-09-18T07:30:33.166Z,63.60
2022-09-18T07:33:03.353Z,63.08
2022-09-18T07:35:31.545Z,62.88
2022-09-18T07:38:00.059Z,63.41
2022-09-18T07:40:30.097Z,62.92
2022-09-18T07:43:01.116Z,61.57
2022-09-18T07:45:29.545Z,60.71
2022-09-18T07:47:58.015Z,60.68
2022-09-18T07:50:25.973Z,59.89
2022-09-18T07:52:57.261Z,61.53
2022-09-18T07:55:28.343Z,61.13
2022-09-18T07:58:00.707Z,60.87
2022-09-18T08:00:31.348Z,61.38
2022-09-18T08:03:04.231Z,59.79
2022-09-18T08:05:32.815Z,58.42
2022-09-18T08:08:05.094Z,58.00
2022-09-18T08:10:34.306Z,57.71
2022-09-18T08:13:04.124Z,58.24
2022-09-18T08:15:33.477Z,58.58
2022-09-18T08:18:01.672Z,58.92
2022-09-18T08:20:29.772Z,58.04
2022-09-18T08:22:58.488Z,57.16
2022-09-18T08:25:28.368Z,56.23
2022-09-18T08:27:59.863Z,57.37
2022-09-18T08:30:29.778Z,57.10
2022-09-18T08:33:01.234Z,56.61
2022-09-18T08:35:30.338Z,54.43
2022-09-18T08:37:59.323Z,53.49
2022-09-18T08:40:53.853Z,53.68
2022-09-18T08:43:59.790Z,53.72
2022-09-18T08:46:37.437Z,53.28
2022-09-18T08:49:24.044Z,54.10
2022-09-18T08:52:03.627Z,52.66
2022-09-18T08:54:46.655Z,51.06
2022-09-18T08:57:22.360Z,52.42
2022-09-18T08:59:55.913Z,53.57
2022-09-18T09:02:40.026Z,53.84
2022-09-18T09:05:12.535Z,54.74
2022-09-18T09:08:38.065Z,54.13
2022-09-18T09:11:18.833Z,53.72
2022-09-18T09:14:16.258Z,53.11
2022-09-18T09:16:48.432Z,52.53
2022-09-18T09:19:31.278Z,51.80
2022-09-18T09:22:13.870Z,52.22
2022-09-18T09:24:57.246Z,52.44
2022-09-18T09:27:31.593Z,52.42
2022-09-18T09:30:06.950Z,53.96
2022-09-18T09:32:44.036Z,54.64
2022-09-18T09:35:29.593Z,53.59
2022-09-18T09:38:01.428Z,52.92
2022-09-18T09:40:40.956Z,52.82
2022-09-18T09:43:28.892Z,52.96
2022-09-18T09:46:03.588Z,51.98
2022-09-18T09:48:42.606Z,51.93
2022-09-18T09:51:23.112Z,51.56
2022-09-18T09:53:53.130Z,50.81
2022-09-18T09:56:33.634Z,49.47
2022-09-18T09:59:11.422Z,49.07
2022-09-18T10:01:47.334Z,49.08
2022-09-18T10:04:30.129Z,50.26
2022-09-18T10:07:15.032Z,49.29
2022-09-18T10:09:52.370Z,47.92
2022-09-18T10:12:31.001Z,46.50
2022-09-18T10:15:14.371Z,46.70
2022-09-18T10:17:43.920Z,49.54
2022-09-18T10:20:18.349Z,49.02
2022-09-18T10:22:48.931Z,50.19
2022-09-18T10:25:31.789Z,50.11
2022-09-18T10:27:59.795Z,50.09
2022-09-18T10:30:27.787Z,51.38
2022-09-18T10:32:55.797Z,52.09
2022-09-18T10:35:45.876Z,52.58
2022-09-18T10:38:33.434Z,53.16
2022-09-18T10:41:27.040Z,54.16
2022-09-18T10:44:00.714Z,53.82
2022-09-18T10:46:32.798Z,53.55
2022-09-18T10:49:24.191Z,52.73
2022-09-18T10:52:29.780Z,50.94
2022-09-18T10:55:12.816Z,49.86
2022-09-18T10:57:44.457Z,50.45
2022-09-18T11:00:50.832Z,49.31
2022-09-18T11:03:49.692Z,49.64
2022-09-18T11:06:23.817Z,49.45
2022-09-18T11:08:56.223Z,50.92
2022-09-18T11:11:31.696Z,52.21
2022-09-18T11:14:03.132Z,52.53
2022-09-18T11:16:34.236Z,52.25
2022-09-18T11:19:13.875Z,52.44
2022-09-18T11:21:46.576Z,53.56
2022-09-18T11:24:24.004Z,53.94
2022-09-18T11:26:55.318Z,53.06
2022-09-18T11:29:30.681Z,52.93
2022-09-18T11:32:06.486Z,53.88
2022-09-18T11:34:38.843Z,53.71
2022-09-18T11:37:12.445Z,53.09
2022-09-18T11:39:45.471Z,52.13
2022-09-18T11:42:17.438Z,52.09
2022-09-18T11:44:46.287Z,50.84
2022-09-18T11:47:42.142Z,50.99
2022-09-18T11:50:17.645Z,50.72
2022-09-18T11:52:52.098Z,52.19
2022-09-18T11:55:29.940Z,51.50
2022-09-18T11:58:04.746Z,52.75
2022-09-18T12:00:41.116Z,52.40
2022-09-18T12:03:22.759Z,51.59
2022-09-18T12:05:56.404Z,51.35
2022-09-18T12:08:38.212Z,51.92
2022-09-18T12:11:18.534Z,51.78
2022-09-18T12:14:03.135Z,52.83
2022-09-18T12:16:46.097Z,53.08
2022-09-18T12:19:22.673Z,53.42
2022-09-18T12:21:59.884Z,53.51
2022-09-18T12:24:28.747Z,53.99
2022-09-18T12:27:18.572Z,54.76
2022-09-18T12:30:04.439Z,54.83
2022-09-18T12:33:00.936Z,55.39
2022-09-18T12:35:51.446Z,55.44
2022-09-18T12:38:41.879Z,55.96
2022-09-18T12:41:28.740Z,56.01
2022-09-18T12:44:30.739Z,56.51
2022-09-18T12:47:40.996Z,57.10
2022-09-18T12:50:42.554Z,60.36
2022-09-18T12:53:28.173Z,62.11
2022-09-18T12:56:17.652Z,64.27
2022-09-18T12:59:09.704Z,67.05
2022-09-18T13:01:45.094Z,68.33
2022-09-18T13:04:28.414Z,67.40
2022-09-18T13:07:03.671Z,68.88
2022-09-18T13:09:39.607Z,70.25
2022-09-18T13:12:16.451Z,71.59
2022-09-18T13:14:51.780Z,73.48
2022-09-18T13:17:26.969Z,73.50
2022-09-18T13:20:06.750Z,75.49
2022-09-18T13:22:39.112Z,75.97
2022-09-18T13:25:22.478Z,75.47
2022-09-18T13:27:53.773Z,75.05
2022-09-18T13:30:28.897Z,75.92
2022-09-18T13:32:58.783Z,76.46
2022-09-18T13:35:31.873Z,76.56
2022-09-18T13:38:15.976Z,77.74
2022-09-18T13:40:47.722Z,78.39
2022-09-18T13:43:40.093Z,78.04
2022-09-18T13:46:10.992Z,77.99
2022-09-18T13:48:46.633Z,78.57
2022-09-18T13:51:30.677Z,76.88
2022-09-18T13:54:22.651Z,76.71
2022-09-18T13:57:29.496Z,76.23
2022-09-18T14:00:01.572Z,76.69
2022-09-18T14:02:36.291Z,76.68
2022-09-18T14:05:33.546Z,76.23
2022-09-18T14:08:10.396Z,75.31
2022-09-18T14:11:16.729Z,75.66
2022-09-18T14:13:54.139Z,75.62
2022-09-18T14:16:43.516Z,73.78
2022-09-18T14:19:35.627Z,74.78
2022-09-18T14:22:04.539Z,74.36
2022-09-18T14:25:00.625Z,75.19
2022-09-18T14:27:53.553Z,74.01
2022-09-18T14:30:25.145Z,72.85
2022-09-18T14:33:18.938Z,72.54
2022-09-18T14:35:56.236Z,70.80
2022-09-18T14:38:34.131Z,70.62
2022-09-18T14:41:19.106Z,70.73
2022-09-18T14:43:53.859Z,70.04
2022-09-18T14:46:25.274Z,70.37
2022-09-18T14:48:54.696Z,70.92
2022-09-18T14:51:25.418Z,69.80
2022-09-18T14:53:55.964Z,69.50
2022-09-18T14:56:30.518Z,70.29
2022-09-18T14:59:04.177Z,68.21
2022-09-18T15:01:35.713Z,66.78
2022-09-18T15:04:13.500Z,67.14
2022-09-18T15:06:47.383Z,66.33
2022-09-18T15:09:24.635Z,66.09
2022-09-18T15:12:03.147Z,65.75
2022-09-18T15:14:42.812Z,67.04
2022-09-18T15:17:20.866Z,66.58
2022-09-18T15:20:01.196Z,66.02
2022-09-18T15:22:31.113Z,66.21
2022-09-18T15:25:01.795Z,64.88
2022-09-18T15:27:32.659Z,64.55
2022-09-18T15:30:04.587Z,64.42
2022-09-18T15:32:43.352Z,63.76
2022-09-18T15:35:21.827Z,63.94
2022-09-18T15:38:00.869Z,64.64
2022-09-18T15:40:35.202Z,64.83
2022-09-18T15:43:07.173Z,63.70
2022-09-18T15:45:38.458Z,64.38
2022-09-18T15:48:36.488Z,64.81
2022-09-18T15:51:15.888Z,64.52
2022-09-18T15:54:24.842Z,64.55
2022-09-18T15:56:56.570Z,63.74
2022-09-18T15:59:33.268Z,64.04
2022-09-18T16:02:07.435Z,65.14
2022-09-18T16:04:37.354Z,65.00
2022-09-18T16:07:18.583Z,65.52
2022-09-18T16:09:49.066Z,65.53
2022-09-18T16:12:39.845Z,65.79
2022-09-18T16:15:25.495Z,66.40
2022-09-18T16:18:05.609Z,66.12
2022-09-18T16:20:38.926Z,64.84
2022-09-18T16:23:25.749Z,65.57
2022-09-18T16:26:10.633Z,65.32
2022-09-18T16:28:44.045Z,65.74
2022-09-18T16:31:16.689Z,65.75
2022-09-18T16:33:57.966Z,66.22
2022-09-18T16:36:31.349Z,66.34
2022-09-18T16:39:02.087Z,67.12
2022-09-18T16:41:31.106Z,66.79
2022-09-18T16:44:00.031Z,66.47
2022-09-18T16:46:38.381Z,66.67
2022-09-18T16:49:06.595Z,68.09
2022-09-18T16:51:34.562Z,68.94
2022-09-18T16:54:02.780Z,68.81
2022-09-18T16:56:36.184Z,68.20
2022-09-18T16:59:06.718Z,68.63
2022-09-18T17:02:00.342Z,68.10
2022-09-18T17:04:28.850Z,69.61
2022-09-18T17:06:56.835Z,70.50
2022-09-18T17:09:25.319Z,71.09
2022-09-18T17:11:54.280Z,71.63
2022-09-18T17:14:23.031Z,71.31
2022-09-18T17:16:52.800Z,71.07
2022-09-18T17:19:21.391Z,71.12
2022-09-18T17:21:50.183Z,71.63
2022-09-18T17:24:23.940Z,72.05
2022-09-18T17:26:52.631Z,71.93
2022-09-18T17:29:21.011Z,72.49
2022-09-18T17:31:49.277Z,72.47
2022-09-18T17:34:18.956Z,72.83
2022-09-18T17:36:47.231Z,72.23
2022-09-18T17:39:16.977Z,72.36
2022-09-18T17:41:45.710Z,72.55
2022-09-18T17:44:13.698Z,72.52
2022-09-18T17:46:41.774Z,72.34
2022-09-18T17:49:10.014Z,70.92
2022-09-18T17:51:39.351Z,70.53
2022-09-18T17:54:08.171Z,71.53
2022-09-18T17:56:36.135Z,72.32
2022-09-18T17:59:06.914Z,72.57
2022-09-18T18:01:38.138Z,73.80
2022-09-18T18:04:07.274Z,74.20
2022-09-18T18:06:36.853Z,74.38
2022-09-18T18:09:09.732Z,75.15
2022-09-18T18:11:38.565Z,75.68
2022-09-18T18:14:07.012Z,76.37
2022-09-18T18:16:37.982Z,76.83
2022-09-18T18:19:12.055Z,78.09
2022-09-18T18:21:42.539Z,76.67
2022-09-18T18:24:16.319Z,76.71
2022-09-18T18:26:45.838Z,76.84
2022-09-18T18:29:16.732Z,75.15
2022-09-18T18:31:45.984Z,75.43
2022-09-18T18:34:15.166Z,74.01
2022-09-18T18:36:43.637Z,74.73
2022-09-18T18:39:14.616Z,74.94
2022-09-18T18:41:44.826Z,74.20
2022-09-18T18:44:13.260Z,74.58
2022-09-18T18:46:41.895Z,74.28
2022-09-18T18:49:13.070Z,75.54
2022-09-18T18:51:45.094Z,74.49
2022-09-18T18:54:16.174Z,73.69
2022-09-18T18:56:44.584Z,74.78
2022-09-18T18:59:15.099Z,75.00
2022-09-18T19:01:44.242Z,74.34
2022-09-18T19:04:15.180Z,74.20
2022-09-18T19:06:44.943Z,74.16
2022-09-18T19:09:20.658Z,73.95
2022-09-18T19:11:50.586Z,74.64
2022-09-18T19:14:22.015Z,75.33
2022-09-18T19:16:51.754Z,75.42
2022-09-18T19:19:23.472Z,75.36
2022-09-18T19:21:52.766Z,75.84
2022-09-18T19:24:22.662Z,74.56
2022-09-18T19:26:50.741Z,74.00
2022-09-18T19:29:22.339Z,73.99
2022-09-18T19:31:51.317Z,74.25
2022-09-18T19:34:22.130Z,74.78
2022-09-18T19:36:51.771Z,74.71
2022-09-18T19:39:24.480Z,73.89
2022-09-18T19:41:59.565Z,73.15
2022-09-18T19:44:34.556Z,73.02
2022-09-18T19:47:07.309Z,72.73
2022-09-18T19:49:39.653Z,72.13
2022-09-18T19:52:18.366Z,72.40
2022-09-18T19:54:48.956Z,71.57
2022-09-18T19:57:17.569Z,71.49
2022-09-18T19:59:46.925Z,72.52
2022-09-18T20:02:17.831Z,71.85
2022-09-18T20:04:46.007Z,72.32
2022-09-18T20:07:15.002Z,71.47
2022-09-18T20:09:43.051Z,72.13
2022-09-18T20:12:12.710Z,72.08
2022-09-18T20:14:40.867Z,71.85
2022-09-18T20:17:09.880Z,71.43
2022-09-18T20:19:38.170Z,72.45
2022-09-18T20:22:06.658Z,72.78
2022-09-18T20:24:35.222Z,72.74
2022-09-18T20:27:03.353Z,72.83
2022-09-18T20:29:33.925Z,72.73
2022-09-18T20:32:02.749Z,72.69
2022-09-18T20:34:30.755Z,73.08
2022-09-18T20:36:59.071Z,73.75
2022-09-18T20:39:27.033Z,73.69
2022-09-18T20:41:57.254Z,72.57
2022-09-18T20:44:25.306Z,71.76
2022-09-18T20:46:56.571Z,71.20
2022-09-18T20:49:25.078Z,72.96
2022-09-18T20:51:53.380Z,73.26
2022-09-18T20:54:22.780Z,71.66
2022-09-18T20:56:50.800Z,72.52
2022-09-18T20:59:20.940Z,73.35
2022-09-18T21:01:49.677Z,73.59
2022-09-18T21:04:22.031Z,73.51
2022-09-18T21:06:55.937Z,74.20
2022-09-18T21:09:26.227Z,74.66
2022-09-18T21:11:54.961Z,76.11
2022-09-18T21:14:24.549Z,77.26
2022-09-18T21:16:52.614Z,77.55
2022-09-18T21:19:26.484Z,78.68
2022-09-18T21:21:54.690Z,79.28
2022-09-18T21:24:22.811Z,78.96
2022-09-18T21:26:51.439Z,78.20
2022-09-18T21:29:22.637Z,79.24
2022-09-18T21:31:54.374Z,79.56
2022-09-18T21:34:26.909Z,80.00
2022-09-18T21:36:58.547Z,80.39
2022-09-18T21:39:29.134Z,81.07
2022-09-18T21:41:58.290Z,80.81
2022-09-18T21:44:30.085Z,80.97
2022-09-18T21:47:01.872Z,81.94
2022-09-18T21:49:31.953Z,81.60
2022-09-18T21:52:03.092Z,81.91
2022-09-18T21:54:32.033Z,82.44
2022-09-18T21:57:01.143Z,83.20
2022-09-18T21:59:35.669Z,83.44
2022-09-18T22:02:04.826Z,82.54
2022-09-18T22:04:34.201Z,83.27
2022-09-18T22:07:02.855Z,83.87
2022-09-18T22:09:34.368Z,83.85
2022-09-18T22:12:03.726Z,83.42
2022-09-18T22:14:34.710Z,83.71
2022-09-18T22:17:05.331Z,83.09
2022-09-18T22:19:39.291Z,83.22
2022-09-18T22:22:08.864Z,83.00
2022-09-18T22:24:37.012Z,82.82
2022-09-18T22:27:08.582Z,82.72
2022-09-18T22:29:39.543Z,82.88
2022-09-18T22:32:09.247Z,83.35
2022-09-18T22:34:38.652Z,82.87
2022-09-18T22:37:07.775Z,83.93
2022-09-18T22:39:35.738Z,83.89
2022-09-18T22:42:03.730Z,84.65
2022-09-18T22:44:31.684Z,84.58
2022-09-18T22:46:59.717Z,84.28
2022-09-18T22:49:27.763Z,84.60
2022-09-18T22:51:57.621Z,84.82
2022-09-18T22:54:27.586Z,84.84
2022-09-18T22:56:56.472Z,84.77
2022-09-18T22:59:27.378Z,85.39
2022-09-18T23:01:59.230Z,86.00
2022-09-18T23:04:30.488Z,85.67
2022-09-18T23:07:00.394Z,85.32
2022-09-18T23:09:29.516Z,85.51
2022-09-18T23:11:58.728Z,85.55
2022-09-18T23:14:29.387Z,85.96
2022-09-18T23:16:59.371Z,85.56
2022-09-18T23:19:30.199Z,85.10
2022-09-18T23:21:59.601Z,85.14
2022-09-18T23:24:28.261Z,84.37
2022-09-18T23:26:58.796Z,83.80
2022-09-18T23:29:31.710Z,83.47
2022-09-18T23:32:00.137Z,84.12
2022-09-18T23:34:31.757Z,84.51
2022-09-18T23:37:02.295Z,84.19
2022-09-18T23:39:32.693Z,83.28
2022-09-18T23:42:02.996Z,83.98
2022-09-18T23:44:31.940Z,83.87
2022-09-18T23:47:01.003Z,84.01
2022-09-18T23:49:29.741Z,84.31
2022-09-18T23:51:59.369Z,84.69
2022-09-18T23:54:31.186Z,85.16
2022-09-18T23:56:59.475Z,84.60
2022-09-18T23:59:28.688Z,84.52
